createdAt,value
2022-09-28T00:00:17.020Z,97.5
2022-09-28T00:01:16.475Z,97.7
2022-09-28T00:02:17.112Z,97.4
2022-09-28T00:03:16.647Z,97.4
2022-09-28T00:04:17.095Z,97.5
2022-09-28T00:05:16.578Z,97.6
2022-09-28T00:06:17.045Z,97.7
2022-09-28T00:07:16.512Z,97.7
2022-09-28T00:08:16.974Z,97.5
2022-09-28T00:09:16.830Z,97.5
2022-09-28T00:10:17.338Z,97.6
2022-09-28T00:11:16.771Z,97.6
2022-09-28T00:12:16.983Z,97.5
2022-09-28T00:13:16.441Z,97.5
2022-09-28T00:14:16.877Z,97.6
2022-09-28T00:15:17.324Z,97.7
2022-09-28T00:16:16.984Z,97.6
2022-09-28T00:17:16.537Z,97.6
2022-09-28T00:18:16.996Z,97.6
2022-09-28T00:19:16.643Z,97.4
2022-09-28T00:20:17.148Z,97.3
2022-09-28T00:21:16.647Z,97.3
2022-09-28T00:22:17.215Z,97.4
2022-09-28T00:23:16.681Z,97.3
2022-09-28T00:24:17.163Z,97.4
2022-09-28T00:25:16.604Z,97.3
2022-09-28T00:26:17.028Z,97.2
2022-09-28T00:27:16.479Z,97.3
2022-09-28T00:28:16.898Z,97.3
2022-09-28T00:29:17.666Z,97.4
2022-09-28T00:30:17.193Z,97.4
2022-09-28T00:31:16.717Z,97.6
2022-09-28T00:32:17.212Z,97.3
2022-09-28T00:33:16.682Z,97.2
2022-09-28T00:34:17.128Z,97.2
2022-09-28T00:35:16.583Z,97.2
2022-09-28T00:36:17.095Z,97.3
2022-09-28T00:37:16.599Z,97.2
2022-09-28T00:38:17.038Z,97.4
2022-09-28T00:39:16.779Z,97.4
2022-09-28T00:40:17.495Z,97.4
2022-09-28T00:41:16.968Z,97.5
2022-09-28T00:42:17.324Z,97.6
2022-09-28T00:43:16.738Z,97.7
2022-09-28T00:44:17.151Z,97.5
2022-09-28T00:45:16.579Z,97.6
2022-09-28T00:46:17.089Z,97.6
2022-09-28T00:47:16.596Z,97.7
2022-09-28T00:48:17.062Z,97.7
2022-09-28T00:49:16.667Z,97.6
2022-09-28T00:50:17.140Z,97.7
2022-09-28T00:51:16.620Z,97.8
2022-09-28T00:52:17.055Z,97.7
2022-09-28T00:53:16.527Z,97.8
2022-09-28T00:54:16.983Z,97.9
2022-09-28T00:55:16.417Z,97.9
2022-09-28T00:56:16.864Z,97.8
2022-09-28T00:57:17.349Z,97.7
2022-09-28T00:58:16.770Z,97.7
2022-09-28T00:59:17.383Z,97.7
2022-09-28T01:00:16.878Z,97.6
2022-09-28T01:01:17.447Z,97.8
2022-09-28T01:02:16.871Z,97.8
2022-09-28T01:03:17.329Z,97.8
2022-09-28T01:04:16.779Z,97.8
2022-09-28T01:05:17.265Z,97.8
2022-09-28T01:06:16.726Z,97.7
2022-09-28T01:07:17.180Z,97.7
2022-09-28T01:08:16.634Z,97.7
2022-09-28T01:09:17.340Z,97.6
2022-09-28T01:10:16.994Z,97.7
2022-09-28T01:11:16.422Z,97.6
2022-09-28T01:12:16.645Z,97.6
2022-09-28T01:13:17.080Z,97.6
2022-09-28T01:14:16.534Z,97.7
2022-09-28T01:15:16.995Z,97.6
2022-09-28T01:16:16.637Z,97.3
2022-09-28T01:17:17.133Z,97.6
2022-09-28T01:18:16.631Z,97.5
2022-09-28T01:19:17.302Z,97.7
2022-09-28T01:20:16.815Z,97.7
2022-09-28T01:21:17.271Z,97.8
2022-09-28T01:22:16.927Z,97.8
2022-09-28T01:23:17.375Z,97.8
2022-09-28T01:24:16.802Z,97.7
2022-09-28T01:25:17.235Z,97.8
2022-09-28T01:26:16.659Z,97.7
2022-09-28T01:27:17.088Z,97.8
2022-09-28T01:28:16.539Z,97.8
2022-09-28T01:29:17.201Z,97.9
2022-09-28T01:30:16.724Z,97.9
2022-09-28T01:31:17.269Z,98.0
2022-09-28T01:32:16.586Z,97.9
2022-09-28T01:33:17.075Z,98.1
2022-09-28T01:34:16.524Z,98.0
2022-09-28T01:35:16.971Z,98.1
2022-09-28T01:36:17.446Z,98.0
2022-09-28T01:37:16.877Z,97.9
2022-09-28T01:38:17.293Z,98.1
2022-09-28T01:39:16.990Z,98.0
2022-09-28T01:40:16.674Z,97.9
2022-09-28T01:41:17.156Z,98.0
2022-09-28T01:42:17.315Z,98.0
2022-09-28T01:43:16.731Z,98.0
2022-09-28T01:44:17.175Z,98.0
2022-09-28T01:45:16.644Z,97.8
2022-09-28T01:46:17.181Z,97.8
2022-09-28T01:47:16.689Z,98.2
2022-09-28T01:48:17.141Z,98.2
2022-09-28T01:49:17.043Z,98.0
2022-09-28T01:50:16.573Z,97.9
2022-09-28T01:51:17.027Z,98.1
2022-09-28T01:52:16.522Z,98.0
2022-09-28T01:53:16.944Z,98.1
2022-09-28T01:54:17.376Z,98.2
2022-09-28T01:55:16.837Z,98.0
2022-09-28T01:56:17.258Z,98.1
2022-09-28T01:57:16.733Z,98.2
2022-09-28T01:58:17.166Z,98.0
2022-09-28T01:59:16.913Z,98.1
2022-09-28T02:00:16.442Z,98.1
2022-09-28T02:01:16.976Z,98.3
2022-09-28T02:02:17.392Z,98.3
2022-09-28T02:03:16.892Z,98.3
2022-09-28T02:04:17.344Z,98.4
2022-09-28T02:05:16.803Z,98.5
2022-09-28T02:06:17.261Z,98.4
2022-09-28T02:07:16.730Z,98.3
2022-09-28T02:08:17.157Z,98.5
2022-09-28T02:09:16.862Z,98.5
2022-09-28T02:10:17.675Z,98.4
2022-09-28T02:11:17.105Z,98.5
2022-09-28T02:12:17.393Z,98.7
2022-09-28T02:13:16.876Z,98.8
2022-09-28T02:14:17.450Z,98.7
2022-09-28T02:15:16.906Z,98.7
2022-09-28T02:16:17.575Z,98.7
2022-09-28T02:17:17.101Z,98.7
2022-09-28T02:18:16.564Z,98.8
2022-09-28T02:19:17.284Z,98.8
2022-09-28T02:20:16.811Z,98.8
2022-09-28T02:21:17.254Z,98.8
2022-09-28T02:22:17.034Z,98.9
2022-09-28T02:23:16.495Z,99.0
2022-09-28T02:24:21.825Z,99.0
2022-09-28T02:25:17.454Z,99.1
2022-09-28T02:26:16.889Z,99.1
2022-09-28T02:27:17.351Z,99.2
2022-09-28T02:28:16.785Z,99.2
2022-09-28T02:29:17.536Z,99.2
2022-09-28T02:30:17.075Z,99.2
2022-09-28T02:31:16.748Z,99.2
2022-09-28T02:32:17.248Z,99.2
2022-09-28T02:33:16.709Z,99.2
2022-09-28T02:34:17.173Z,99.2
2022-09-28T02:35:16.659Z,99.2
2022-09-28T02:36:17.095Z,99.3
2022-09-28T02:37:16.520Z,99.3
2022-09-28T02:38:16.949Z,99.3
2022-09-28T02:39:17.514Z,99.3
2022-09-28T02:40:17.119Z,99.3
2022-09-28T02:41:16.542Z,99.3
2022-09-28T02:42:16.858Z,99.3
2022-09-28T02:43:17.327Z,99.3
2022-09-28T02:44:16.783Z,99.3
2022-09-28T02:45:17.255Z,99.3
2022-09-28T02:46:16.873Z,99.3
2022-09-28T02:47:17.370Z,99.3
2022-09-28T02:48:36.103Z,99.3
2022-09-28T02:49:22.491Z,99.3
2022-09-28T02:50:17.025Z,99.4
2022-09-28T02:51:16.452Z,99.4
2022-09-28T02:52:17.156Z,99.5
2022-09-28T02:53:16.798Z,99.5
2022-09-28T02:54:19.102Z,99.5
2022-09-28T02:55:16.542Z,99.5
2022-09-28T02:56:17.013Z,99.5
2022-09-28T02:57:16.447Z,99.5
2022-09-28T02:58:16.934Z,99.6
2022-09-28T02:59:17.653Z,99.6
2022-09-28T03:00:17.172Z,99.6
2022-09-28T03:01:16.791Z,99.6
2022-09-28T03:02:17.434Z,99.5
2022-09-28T03:03:16.932Z,99.5
2022-09-28T03:04:17.385Z,99.7
2022-09-28T03:05:16.861Z,99.7
2022-09-28T03:06:17.291Z,99.7
2022-09-28T03:07:16.714Z,99.7
2022-09-28T03:08:17.131Z,99.7
2022-09-28T03:09:16.872Z,99.7
2022-09-28T03:10:17.361Z,99.6
2022-09-28T03:11:17.068Z,99.6
2022-09-28T03:12:16.795Z,99.6
2022-09-28T03:13:17.262Z,99.6
2022-09-28T03:14:16.752Z,99.7
2022-09-28T03:15:17.212Z,99.7
2022-09-28T03:16:16.764Z,99.7
2022-09-28T03:17:17.243Z,99.8
2022-09-28T03:18:16.694Z,99.8
2022-09-28T03:19:17.349Z,99.8
2022-09-28T03:20:16.839Z,99.8
2022-09-28T03:21:17.287Z,99.8
2022-09-28T03:22:16.820Z,99.8
2022-09-28T03:23:25.577Z,99.8
2022-09-28T03:24:17.036Z,99.8
2022-09-28T03:25:16.452Z,99.8
2022-09-28T03:26:16.891Z,99.8
2022-09-28T03:27:17.343Z,99.8
2022-09-28T03:28:16.828Z,99.8
2022-09-28T03:29:17.598Z,99.8
2022-09-28T03:30:17.168Z,99.8
2022-09-28T03:31:16.795Z,99.8
2022-09-28T03:32:17.245Z,99.8
2022-09-28T03:33:16.705Z,99.8
2022-09-28T03:34:17.166Z,100.0
2022-09-28T03:35:16.606Z,100.0
2022-09-28T03:36:17.045Z,100.0
2022-09-28T03:37:16.476Z,100.0
2022-09-28T03:38:16.913Z,100.0
2022-09-28T03:39:17.582Z,100.0
2022-09-28T03:40:17.140Z,100.0
2022-09-28T03:41:16.599Z,100.0
2022-09-28T03:42:17.127Z,100.0
2022-09-28T03:43:16.590Z,100.0
2022-09-28T03:44:17.056Z,100.0
2022-09-28T03:45:16.498Z,100.0
2022-09-28T03:46:17.141Z,100.0
2022-09-28T03:47:16.614Z,100.0
2022-09-28T03:48:24.472Z,100.0
2022-09-28T03:49:16.716Z,100.0
2022-09-28T03:50:17.200Z,100.0
2022-09-28T03:51:16.618Z,100.0
2022-09-28T03:52:16.562Z,100.0
2022-09-28T03:53:17.010Z,100.0
2022-09-28T03:54:16.424Z,100.0
2022-09-28T03:55:16.865Z,100.0
2022-09-28T03:56:17.299Z,100.0
2022-09-28T03:57:16.779Z,100.0
2022-09-28T03:58:17.235Z,100.0
2022-09-28T03:59:16.921Z,100.0
2022-09-28T04:00:17.433Z,100.0
2022-09-28T04:01:18.370Z,100.0
2022-09-28T04:02:16.629Z,100.0
2022-09-28T04:03:17.107Z,100.0
2022-09-28T04:04:16.564Z,100.0
2022-09-28T04:05:17.017Z,100.0
2022-09-28T04:06:16.439Z,100.0
2022-09-28T04:07:16.887Z,100.0
2022-09-28T04:08:17.338Z,100.0
2022-09-28T04:09:17.048Z,100.0
2022-09-28T04:10:16.592Z,100.0
2022-09-28T04:11:17.036Z,100.0
2022-09-28T04:12:16.542Z,100.0
2022-09-28T04:13:16.993Z,100.0
2022-09-28T04:14:16.488Z,100.0
2022-09-28T04:15:17.076Z,100.0
2022-09-28T04:16:16.642Z,100.0
2022-09-28T04:17:17.117Z,100.0
2022-09-28T04:18:16.572Z,100.0
2022-09-28T04:19:17.315Z,100.0
2022-09-28T04:20:16.790Z,100.0
2022-09-28T04:21:17.255Z,100.0
2022-09-28T04:22:16.959Z,100.0
2022-09-28T04:23:17.402Z,100.0
2022-09-28T04:24:16.850Z,100.0
2022-09-28T04:25:17.321Z,100.0
2022-09-28T04:26:16.833Z,100.0
2022-09-28T04:27:17.294Z,100.0
2022-09-28T04:28:16.738Z,100.0
2022-09-28T04:29:17.623Z,100.0
2022-09-28T04:30:17.174Z,100.0
2022-09-28T04:31:16.681Z,100.0
2022-09-28T04:32:17.325Z,100.0
2022-09-28T04:33:16.748Z,100.0
2022-09-28T04:34:17.168Z,100.0
2022-09-28T04:35:16.619Z,100.0
2022-09-28T04:36:17.031Z,100.0
2022-09-28T04:37:16.453Z,100.0
2022-09-28T04:38:48.650Z,100.0
2022-09-28T04:39:16.628Z,100.0
2022-09-28T04:40:17.353Z,100.0
2022-09-28T04:41:16.828Z,100.0
2022-09-28T04:42:17.193Z,100.0
2022-09-28T04:43:16.641Z,100.0
2022-09-28T04:44:17.114Z,100.0
2022-09-28T04:45:16.601Z,100.0
2022-09-28T04:46:17.345Z,100.0
2022-09-28T04:47:16.832Z,100.0
2022-09-28T04:48:17.255Z,100.0
2022-09-28T04:49:16.979Z,100.0
2022-09-28T04:50:16.516Z,100.0
2022-09-28T04:51:16.938Z,100.0
2022-09-28T04:52:18.848Z,100.0
2022-09-28T04:53:17.308Z,100.0
2022-09-28T04:54:16.771Z,100.0
2022-09-28T04:55:17.231Z,100.0
2022-09-28T04:56:16.690Z,100.0
2022-09-28T04:57:17.174Z,100.0
2022-09-28T04:58:16.650Z,100.0
2022-09-28T04:59:17.325Z,100.0
2022-09-28T05:00:16.809Z,100.0
2022-09-28T05:01:17.399Z,100.0
2022-09-28T05:02:16.857Z,100.0
2022-09-28T05:03:17.344Z,100.0
2022-09-28T05:04:16.768Z,100.0
2022-09-28T05:05:17.236Z,100.0
2022-09-28T05:06:16.658Z,100.0
2022-09-28T05:07:17.087Z,100.0
2022-09-28T05:08:16.555Z,100.0
2022-09-28T05:09:17.254Z,100.0
2022-09-28T05:10:16.742Z,100.0
2022-09-28T05:11:17.202Z,100.0
2022-09-28T05:12:16.809Z,100.0
2022-09-28T05:13:17.276Z,100.0
2022-09-28T05:14:16.754Z,100.0
2022-09-28T05:15:17.239Z,100.0
2022-09-28T05:16:16.816Z,100.0
2022-09-28T05:17:17.408Z,100.0
2022-09-28T05:18:16.877Z,100.0
2022-09-28T05:19:17.514Z,100.0
2022-09-28T05:20:17.033Z,100.0
2022-09-28T05:21:16.456Z,100.0
2022-09-28T05:22:17.012Z,100.0
2022-09-28T05:23:16.475Z,100.0
2022-09-28T05:24:16.986Z,100.0
2022-09-28T05:25:16.447Z,100.0
2022-09-28T05:26:16.896Z,100.0
2022-09-28T05:27:17.354Z,100.0
2022-09-28T05:28:16.862Z,100.0
2022-09-28T05:29:17.545Z,100.0
2022-09-28T05:30:17.075Z,100.0
2022-09-28T05:31:16.582Z,100.0
2022-09-28T05:32:17.118Z,100.0
2022-09-28T05:33:16.560Z,100.0
2022-09-28T05:34:16.984Z,100.0
2022-09-28T05:35:16.475Z,100.0
2022-09-28T05:36:16.921Z,100.0
2022-09-28T05:37:17.357Z,100.0
2022-09-28T05:38:16.817Z,100.0
2022-09-28T05:39:17.499Z,100.0
2022-09-28T05:40:17.163Z,100.0
2022-09-28T05:41:16.662Z,100.0
2022-09-28T05:42:17.032Z,100.0
2022-09-28T05:43:16.483Z,100.0
2022-09-28T05:44:17.376Z,100.0
2022-09-28T05:45:16.896Z,100.0
2022-09-28T05:46:17.434Z,100.0
2022-09-28T05:47:16.946Z,100.0
2022-09-28T05:48:17.393Z,100.0
2022-09-28T05:49:16.814Z,100.0
2022-09-28T05:50:17.314Z,100.0
2022-09-28T05:51:16.747Z,100.0
2022-09-28T05:52:16.704Z,100.0
2022-09-28T05:53:17.175Z,100.0
2022-09-28T05:54:17.136Z,100.0
2022-09-28T05:55:16.755Z,100.0
2022-09-28T05:56:17.260Z,100.0
2022-09-28T05:57:16.741Z,100.0
2022-09-28T05:58:17.202Z,100.0
2022-09-28T05:59:16.660Z,100.0
2022-09-28T06:00:17.140Z,100.0
2022-09-28T06:01:16.731Z,100.0
2022-09-28T06:02:17.323Z,100.0
2022-09-28T06:03:16.751Z,100.0
2022-09-28T06:04:17.477Z,100.0
2022-09-28T06:05:17.039Z,100.0
2022-09-28T06:06:16.515Z,100.0
2022-09-28T06:07:17.007Z,100.0
2022-09-28T06:08:16.490Z,100.0
2022-09-28T06:09:16.959Z,100.0
2022-09-28T06:10:17.478Z,100.0
2022-09-28T06:11:16.932Z,100.0
2022-09-28T06:12:17.153Z,100.0
2022-09-28T06:13:16.609Z,100.0
2022-09-28T06:14:17.288Z,100.0
2022-09-28T06:15:16.791Z,100.0
2022-09-28T06:16:17.480Z,100.0
2022-09-28T06:17:16.997Z,100.0
2022-09-28T06:18:16.421Z,100.0
2022-09-28T06:19:16.933Z,100.0
2022-09-28T06:20:17.456Z,100.0
2022-09-28T06:21:16.906Z,100.0
2022-09-28T06:22:17.370Z,100.0
2022-09-28T06:23:16.841Z,100.0
2022-09-28T06:24:17.641Z,100.0
2022-09-28T06:25:17.142Z,100.0
2022-09-28T06:26:16.605Z,100.0
2022-09-28T06:27:17.052Z,100.0
2022-09-28T06:28:16.482Z,100.0
2022-09-28T06:29:19.993Z,100.0
2022-09-28T06:30:16.454Z,100.0
2022-09-28T06:31:16.989Z,100.0
2022-09-28T06:32:16.702Z,99.9
2022-09-28T06:33:17.117Z,99.9
2022-09-28T06:34:17.227Z,99.9
2022-09-28T06:35:16.759Z,99.8
2022-09-28T06:36:17.214Z,99.8
2022-09-28T06:37:16.663Z,99.8
2022-09-28T06:38:17.127Z,99.8
2022-09-28T06:39:16.572Z,99.8
2022-09-28T06:40:17.107Z,99.8
2022-09-28T06:41:16.590Z,99.8
2022-09-28T06:42:16.968Z,99.8
2022-09-28T06:43:17.384Z,99.8
2022-09-28T06:44:16.931Z,99.8
2022-09-28T06:45:16.420Z,99.8
2022-09-28T06:46:16.890Z,99.8
2022-09-28T06:47:17.345Z,99.8
2022-09-28T06:48:16.761Z,99.8
2022-09-28T06:49:19.794Z,99.8
2022-09-28T06:50:17.296Z,99.8
2022-09-28T06:51:16.760Z,99.8
2022-09-28T06:52:17.309Z,99.7
2022-09-28T06:53:16.803Z,99.7
2022-09-28T06:54:17.517Z,99.7
2022-09-28T06:55:17.042Z,99.7
2022-09-28T06:56:16.475Z,99.7
2022-09-28T06:57:16.924Z,99.7
2022-09-28T06:58:17.351Z,99.7
2022-09-28T06:59:16.769Z,99.7
2022-09-28T07:00:17.229Z,99.6
2022-09-28T07:01:16.784Z,99.5
2022-09-28T07:02:17.343Z,99.4
2022-09-28T07:03:16.778Z,99.4
2022-09-28T07:04:17.487Z,99.3
2022-09-28T07:05:17.054Z,99.4
2022-09-28T07:06:16.544Z,99.4
2022-09-28T07:07:16.998Z,99.4
2022-09-28T07:08:16.452Z,99.3
2022-09-28T07:09:32.101Z,99.3
2022-09-28T07:10:17.129Z,99.3
2022-09-28T07:11:16.605Z,99.4
2022-09-28T07:12:17.385Z,99.4
2022-09-28T07:13:48.313Z,99.3
2022-09-28T07:14:39.475Z,99.3
2022-09-28T07:15:16.749Z,99.3
2022-09-28T07:16:17.390Z,99.3
2022-09-28T07:17:17.045Z,99.3
2022-09-28T07:18:16.613Z,99.4
2022-09-28T07:19:17.072Z,99.4
2022-09-28T07:20:19.899Z,99.5
2022-09-28T07:21:30.597Z,99.5
2022-09-28T07:22:23.619Z,99.5
2022-09-28T07:23:20.042Z,99.5
2022-09-28T07:24:16.595Z,99.5
2022-09-28T07:25:17.046Z,99.5
2022-09-28T07:26:23.415Z,99.5
2022-09-28T07:27:16.492Z,99.5
2022-09-28T07:28:16.963Z,99.4
2022-09-28T07:29:17.394Z,99.3
2022-09-28T07:30:16.819Z,99.3
2022-09-28T07:31:17.435Z,99.3
2022-09-28T07:32:17.441Z,99.2
2022-09-28T07:33:16.949Z,99.2
2022-09-28T07:34:17.700Z,99.0
2022-09-28T07:35:17.227Z,98.9
2022-09-28T07:36:16.715Z,99.0
2022-09-28T07:37:17.164Z,99.0
2022-09-28T07:38:16.631Z,99.0
2022-09-28T07:39:17.107Z,99.0
2022-09-28T07:40:16.659Z,99.0
2022-09-28T07:41:17.122Z,98.7
2022-09-28T07:42:16.399Z,98.4
2022-09-28T07:43:16.818Z,98.1
2022-09-28T07:44:17.496Z,98.1
2022-09-28T07:45:17.000Z,98.2
2022-09-28T07:46:16.555Z,98.2
2022-09-28T07:47:17.039Z,98.0
2022-09-28T07:48:16.570Z,97.6
2022-09-28T07:49:17.152Z,97.7
2022-09-28T07:50:16.688Z,97.7
2022-09-28T07:51:17.188Z,96.7
2022-09-28T07:52:16.909Z,96.3
2022-09-28T07:53:17.375Z,97.1
2022-09-28T07:54:16.857Z,96.2
2022-09-28T07:55:17.299Z,95.9
2022-09-28T07:56:16.717Z,95.7
2022-09-28T07:57:17.131Z,95.5
2022-09-28T07:58:16.562Z,95.2
2022-09-28T07:59:17.178Z,95.2
2022-09-28T08:00:16.703Z,95.2
2022-09-28T08:01:17.270Z,95.5
2022-09-28T08:02:16.806Z,96.0
2022-09-28T08:03:17.294Z,96.0
2022-09-28T08:04:16.751Z,95.8
2022-09-28T08:05:17.234Z,95.5
2022-09-28T08:06:16.702Z,96.0
2022-09-28T08:07:23.996Z,94.8
2022-09-28T08:08:16.695Z,94.2
2022-09-28T08:09:17.337Z,93.7
2022-09-28T08:10:16.842Z,93.6
2022-09-28T08:11:17.274Z,93.6
2022-09-28T08:12:17.405Z,93.0
2022-09-28T08:13:16.861Z,93.0
2022-09-28T08:14:17.551Z,93.4
2022-09-28T08:15:17.061Z,92.9
2022-09-28T08:16:16.833Z,92.5
2022-09-28T08:17:17.387Z,91.8
2022-09-28T08:18:16.867Z,91.2
2022-09-28T08:19:17.619Z,91.2
2022-09-28T08:20:17.182Z,90.8
2022-09-28T08:21:16.641Z,90.7
2022-09-28T08:22:17.102Z,89.8
2022-09-28T08:23:16.549Z,90.5
2022-09-28T08:24:17.015Z,90.1
2022-09-28T08:25:16.955Z,90.8
2022-09-28T08:26:17.389Z,91.2
2022-09-28T08:27:16.809Z,90.8
2022-09-28T08:28:17.283Z,90.3
2022-09-28T08:29:16.719Z,90.0
2022-09-28T08:30:17.183Z,89.8
2022-09-28T08:31:16.773Z,89.9
2022-09-28T08:32:16.509Z,90.2
2022-09-28T08:33:16.978Z,90.1
2022-09-28T08:34:16.483Z,90.7
2022-09-28T08:35:16.961Z,90.5
2022-09-28T08:36:17.430Z,90.8
2022-09-28T08:37:16.913Z,91.8
2022-09-28T08:38:17.344Z,90.5
2022-09-28T08:39:16.764Z,90.0
2022-09-28T08:40:17.310Z,90.3
2022-09-28T08:41:16.744Z,89.7
2022-09-28T08:42:17.187Z,89.7
2022-09-28T08:43:16.646Z,89.7
2022-09-28T08:44:17.354Z,89.3
2022-09-28T08:45:16.930Z,90.1
2022-09-28T08:46:17.576Z,89.9
2022-09-28T08:47:17.175Z,90.0
2022-09-28T08:48:16.668Z,89.9
2022-09-28T08:49:30.595Z,90.2
2022-09-28T08:50:17.075Z,90.4
2022-09-28T08:51:16.593Z,90.3
2022-09-28T08:52:17.149Z,90.0
2022-09-28T08:53:16.581Z,90.0
2022-09-28T08:54:17.221Z,89.9
2022-09-28T08:55:16.746Z,88.5
2022-09-28T08:56:17.181Z,86.8
2022-09-28T08:57:16.619Z,85.7
2022-09-28T08:58:17.078Z,85.0
2022-09-28T08:59:16.579Z,84.0
2022-09-28T09:00:17.080Z,83.6
2022-09-28T09:01:17.069Z,82.0
2022-09-28T09:02:17.397Z,81.7
2022-09-28T09:03:16.860Z,80.9
2022-09-28T09:04:17.490Z,83.0
2022-09-28T09:05:16.982Z,81.8
2022-09-28T09:06:18.808Z,81.4
2022-09-28T09:07:17.282Z,80.8
2022-09-28T09:08:16.751Z,80.8
2022-09-28T09:09:17.177Z,79.8
2022-09-28T09:10:16.599Z,79.8
2022-09-28T09:11:17.049Z,80.1
2022-09-28T09:12:16.825Z,79.6
2022-09-28T09:13:17.328Z,79.5
2022-09-28T09:14:16.829Z,80.6
2022-09-28T09:15:17.335Z,80.2
2022-09-28T09:16:16.945Z,81.3
2022-09-28T09:17:16.424Z,81.9
2022-09-28T09:18:20.300Z,81.8
2022-09-28T09:19:16.767Z,82.4
2022-09-28T09:20:17.227Z,82.8
2022-09-28T09:21:16.708Z,83.3
2022-09-28T09:22:17.329Z,83.6
2022-09-28T09:23:16.770Z,84.0
2022-09-28T09:24:17.465Z,84.2
2022-09-28T09:25:16.942Z,84.6
2022-09-28T09:26:24.339Z,85.1
2022-09-28T09:27:16.531Z,85.0
2022-09-28T09:28:16.977Z,85.8
2022-09-28T09:29:17.670Z,87.3
2022-09-28T09:30:20.588Z,86.7
2022-09-28T09:31:22.779Z,86.2
2022-09-28T09:32:17.347Z,85.8
2022-09-28T09:33:16.795Z,86.3
2022-09-28T09:34:17.382Z,86.4
2022-09-28T09:35:17.740Z,85.1
2022-09-28T09:36:16.780Z,84.9
2022-09-28T09:37:17.254Z,85.0
2022-09-28T09:38:16.687Z,85.3
2022-09-28T09:39:17.142Z,85.2
2022-09-28T09:40:16.700Z,85.6
2022-09-28T09:41:17.156Z,85.4
2022-09-28T09:42:16.622Z,85.4
2022-09-28T09:43:17.081Z,85.2
2022-09-28T09:44:16.500Z,85.2
2022-09-28T09:45:16.961Z,85.5
2022-09-28T09:46:17.518Z,85.6
2022-09-28T09:47:17.024Z,85.2
2022-09-28T09:48:16.488Z,83.4
2022-09-28T09:49:16.946Z,81.6
2022-09-28T09:50:17.434Z,82.2
2022-09-28T09:51:16.899Z,82.7
2022-09-28T09:52:16.997Z,82.7
2022-09-28T09:53:16.428Z,83.3
2022-09-28T09:54:16.851Z,84.4
2022-09-28T09:55:17.276Z,84.7
2022-09-28T09:56:16.756Z,84.3
2022-09-28T09:57:17.191Z,84.7
2022-09-28T09:58:16.620Z,84.1
2022-09-28T09:59:17.074Z,84.0
2022-09-28T10:00:16.545Z,84.0
2022-09-28T10:01:17.055Z,83.7
2022-09-28T10:02:16.497Z,83.6
2022-09-28T10:03:17.026Z,83.9
2022-09-28T10:04:16.508Z,83.4
2022-09-28T10:05:16.993Z,83.9
2022-09-28T10:06:16.544Z,83.7
2022-09-28T10:07:16.972Z,84.0
2022-09-28T10:08:17.414Z,83.5
2022-09-28T10:09:16.883Z,84.2
2022-09-28T10:10:17.367Z,83.2
2022-09-28T10:11:16.809Z,83.3
2022-09-28T10:12:17.139Z,84.2
2022-09-28T10:13:16.575Z,83.2
2022-09-28T10:14:17.075Z,83.8
2022-09-28T10:15:16.553Z,83.3
2022-09-28T10:16:17.100Z,83.5
2022-09-28T10:17:16.578Z,83.8
2022-09-28T10:18:17.021Z,84.3
2022-09-28T10:19:16.528Z,84.2
2022-09-28T10:20:17.002Z,83.7
2022-09-28T10:21:16.432Z,83.5
2022-09-28T10:22:16.858Z,82.9
2022-09-28T10:23:17.299Z,83.2
2022-09-28T10:24:16.739Z,81.5
2022-09-28T10:25:17.194Z,80.5
2022-09-28T10:26:16.617Z,79.7
2022-09-28T10:27:17.109Z,78.9
2022-09-28T10:28:16.573Z,78.5
2022-09-28T10:29:17.134Z,77.8
2022-09-28T10:30:16.719Z,76.1
2022-09-28T10:31:17.167Z,75.4
2022-09-28T10:32:17.051Z,74.7
2022-09-28T10:33:16.535Z,74.8
2022-09-28T10:34:17.302Z,74.4
2022-09-28T10:35:16.811Z,74.3
2022-09-28T10:36:17.256Z,74.9
2022-09-28T10:37:16.728Z,75.7
2022-09-28T10:38:17.157Z,75.5
2022-09-28T10:39:16.580Z,75.8
2022-09-28T10:40:17.254Z,75.3
2022-09-28T10:41:16.765Z,75.4
2022-09-28T10:42:17.111Z,75.6
2022-09-28T10:43:16.571Z,75.8
2022-09-28T10:44:17.093Z,75.8
2022-09-28T10:45:16.599Z,74.8
2022-09-28T10:46:17.215Z,75.3
2022-09-28T10:47:16.749Z,77.0
2022-09-28T10:48:17.236Z,76.3
2022-09-28T10:49:16.703Z,76.7
2022-09-28T10:50:17.217Z,76.8
2022-09-28T10:51:16.678Z,77.7
2022-09-28T10:52:17.280Z,77.6
2022-09-28T10:53:16.702Z,75.7
2022-09-28T10:54:17.190Z,77.1
2022-09-28T10:55:16.641Z,75.9
2022-09-28T10:56:17.089Z,77.2
2022-09-28T10:57:16.571Z,77.0
2022-09-28T10:58:17.035Z,77.3
2022-09-28T10:59:16.502Z,76.3
2022-09-28T11:00:17.171Z,76.8
2022-09-28T11:01:16.772Z,75.8
2022-09-28T11:02:17.338Z,75.4
2022-09-28T11:03:16.825Z,74.7
2022-09-28T11:04:17.482Z,73.8
2022-09-28T11:05:17.016Z,73.4
2022-09-28T11:06:16.449Z,73.3
2022-09-28T11:07:17.615Z,73.5
2022-09-28T11:08:17.033Z,73.0
2022-09-28T11:09:16.606Z,72.1
2022-09-28T11:10:17.097Z,71.3
2022-09-28T11:11:16.570Z,71.9
2022-09-28T11:12:16.908Z,71.0
2022-09-28T11:13:17.386Z,71.4
2022-09-28T11:14:16.852Z,71.0
2022-09-28T11:15:17.388Z,69.8
2022-09-28T11:16:16.992Z,69.3
2022-09-28T11:17:16.458Z,69.2
2022-09-28T11:18:16.913Z,69.3
2022-09-28T11:19:17.589Z,69.6
2022-09-28T11:20:17.270Z,70.8
2022-09-28T11:21:16.743Z,70.6
2022-09-28T11:22:16.484Z,69.3
2022-09-28T11:23:16.920Z,69.6
2022-09-28T11:24:19.824Z,69.8
2022-09-28T11:25:17.412Z,70.1
2022-09-28T11:26:19.150Z,70.6
2022-09-28T11:27:16.672Z,71.0
2022-09-28T11:28:17.157Z,71.3
2022-09-28T11:29:16.778Z,71.6
2022-09-28T11:30:17.308Z,72.9
2022-09-28T11:31:16.958Z,72.5
2022-09-28T11:32:17.226Z,72.8
2022-09-28T11:33:16.687Z,72.3
2022-09-28T11:34:17.260Z,72.7
2022-09-28T11:35:16.691Z,73.3
2022-09-28T11:36:17.283Z,72.5
2022-09-28T11:37:16.717Z,71.4
2022-09-28T11:38:17.179Z,70.9
2022-09-28T11:39:16.630Z,70.0
2022-09-28T11:40:17.431Z,69.8
2022-09-28T11:41:17.004Z,70.1
2022-09-28T11:42:17.123Z,69.5
2022-09-28T11:43:17.147Z,70.4
2022-09-28T11:44:16.611Z,70.0
2022-09-28T11:45:17.176Z,71.1
2022-09-28T11:46:16.804Z,70.0
2022-09-28T11:47:17.303Z,70.8
2022-09-28T11:48:16.774Z,69.7
2022-09-28T11:49:17.211Z,70.0
2022-09-28T11:50:24.264Z,71.7
2022-09-28T11:51:17.030Z,72.0
2022-09-28T11:52:16.449Z,70.7
2022-09-28T11:53:16.900Z,70.7
2022-09-28T11:54:17.353Z,71.5
2022-09-28T11:55:16.754Z,71.9
2022-09-28T11:56:17.214Z,72.4
2022-09-28T11:57:16.704Z,71.9
2022-09-28T11:58:17.192Z,72.9
2022-09-28T11:59:16.657Z,72.5
2022-09-28T12:00:17.147Z,72.2
2022-09-28T12:01:19.276Z,71.3
2022-09-28T12:02:16.698Z,71.1
2022-09-28T12:03:17.612Z,71.7
2022-09-28T12:04:17.100Z,71.0
2022-09-28T12:05:21.207Z,70.3
2022-09-28T12:06:16.715Z,70.3
2022-09-28T12:07:17.167Z,71.0
2022-09-28T12:08:16.594Z,71.7
2022-09-28T12:09:17.053Z,70.8
2022-09-28T12:10:16.472Z,69.6
2022-09-28T12:11:16.939Z,70.1
2022-09-28T12:12:17.364Z,69.7
2022-09-28T12:13:16.827Z,69.1
2022-09-28T12:14:17.289Z,68.8
2022-09-28T12:15:16.767Z,68.8
2022-09-28T12:17:00.758Z,69.3
2022-09-28T12:17:20.432Z,69.5
2022-09-28T12:18:17.077Z,69.5
2022-09-28T12:19:16.617Z,69.2
2022-09-28T12:20:17.058Z,69.1
2022-09-28T12:21:16.515Z,69.1
2022-09-28T12:22:16.544Z,69.7
2022-09-28T12:23:16.986Z,68.8
2022-09-28T12:24:16.424Z,69.3
2022-09-28T12:25:16.910Z,69.9
2022-09-28T12:26:17.373Z,69.6
2022-09-28T12:27:16.850Z,70.0
2022-09-28T12:28:17.303Z,70.0
2022-09-28T12:29:16.789Z,70.1
2022-09-28T12:30:17.244Z,70.8
2022-09-28T12:31:16.879Z,69.8
2022-09-28T12:32:16.988Z,69.8
2022-09-28T12:33:16.417Z,70.0
2022-09-28T12:34:16.852Z,70.5
2022-09-28T12:35:17.285Z,70.9
2022-09-28T12:36:16.707Z,72.0
2022-09-28T12:37:17.128Z,70.8
2022-09-28T12:38:16.566Z,69.8
2022-09-28T12:39:41.155Z,70.5
2022-09-28T12:40:17.551Z,70.9
2022-09-28T12:41:17.041Z,72.8
2022-09-28T12:42:16.530Z,71.8
2022-09-28T12:43:16.994Z,70.2
2022-09-28T12:44:16.461Z,71.5
2022-09-28T12:45:16.915Z,70.3
2022-09-28T12:46:17.560Z,70.3
2022-09-28T12:47:17.019Z,70.9
2022-09-28T12:48:16.452Z,69.6
2022-09-28T12:50:36.855Z,70.0
2022-09-28T12:50:40.064Z,70.2
2022-09-28T12:51:16.881Z,71.0
2022-09-28T12:52:16.496Z,71.1
2022-09-28T12:53:16.933Z,71.8
2022-09-28T12:54:17.418Z,71.2
2022-09-28T12:55:16.906Z,70.7
2022-09-28T12:56:21.715Z,71.8
2022-09-28T12:57:17.444Z,70.6
2022-09-28T12:58:16.931Z,71.7
2022-09-28T12:59:17.639Z,70.0
2022-09-28T13:00:17.194Z,70.2
2022-09-28T13:01:16.708Z,70.3
2022-09-28T13:02:17.257Z,70.9
2022-09-28T13:03:16.727Z,69.9
2022-09-28T13:04:17.207Z,70.2
2022-09-28T13:05:16.648Z,70.4
2022-09-28T13:06:17.111Z,70.2
2022-09-28T13:07:16.585Z,70.0
2022-09-28T13:08:17.062Z,71.5
2022-09-28T13:09:16.723Z,71.7
2022-09-28T13:10:17.234Z,70.8
2022-09-28T13:11:16.714Z,71.0
2022-09-28T13:12:16.444Z,70.3